createdAt,value
2023-02-19T00:02:06.082Z,0.49
2023-02-19T00:06:05.977Z,0.49
2023-02-19T00:10:05.709Z,0.49
2023-02-19T00:14:06.135Z,0.49
2023-02-19T00:18:05.998Z,0.49
2023-02-19T00:22:06.714Z,0.49
2023-02-19T00:26:20.128Z,0.49
2023-02-19T00:30:05.367Z,0.49
2023-02-19T00:34:05.701Z,0.49
2023-02-19T00:38:05.645Z,0.49
2023-02-19T00:42:06.838Z,0.49
2023-02-19T00:46:06.000Z,0.49
2023-02-19T00:50:06.271Z,0.49
2023-02-19T00:54:06.004Z,0.49
2023-02-19T00:58:06.347Z,0.49
2023-02-19T01:02:09.670Z,0.49
2023-02-19T01:06:05.875Z,0.49
2023-02-19T01:10:05.705Z,0.49
2023-02-19T01:14:05.682Z,0.49
2023-02-19T01:18:06.168Z,0.49
2023-02-19T01:22:06.399Z,0.49
2023-02-19T01:26:06.154Z,0.49
2023-02-19T01:30:06.113Z,0.49
2023-02-19T01:34:06.482Z,0.49
2023-02-19T01:38:06.014Z,0.49
2023-02-19T01:42:06.555Z,0.49
2023-02-19T01:46:05.881Z,0.49
2023-02-19T01:50:06.000Z,0.49
2023-02-19T01:54:06.129Z,0.49
2023-02-19T01:58:05.848Z,0.49
2023-02-19T02:02:09.946Z,0.49
2023-02-19T02:06:05.661Z,0.49
2023-02-19T02:10:05.767Z,0.49
2023-02-19T02:14:05.699Z,0.49
2023-02-19T02:18:05.871Z,0.49
2023-02-19T02:22:06.606Z,0.49
2023-02-19T02:26:05.166Z,0.49
2023-02-19T02:30:05.358Z,0.49
2023-02-19T02:34:05.521Z,0.49
2023-02-19T02:38:05.475Z,0.49
2023-02-19T02:42:06.055Z,0.49
2023-02-19T02:46:06.161Z,0.49
2023-02-19T02:50:05.886Z,0.49
2023-02-19T02:54:06.117Z,0.49
2023-02-19T02:58:05.846Z,0.49
2023-02-19T03:02:10.446Z,0.49
2023-02-19T03:06:06.107Z,0.49
2023-02-19T03:10:05.928Z,0.49
2023-02-19T03:14:06.160Z,0.49
2023-02-19T03:18:06.479Z,0.49
2023-02-19T03:22:06.299Z,0.49
2023-02-19T03:26:05.217Z,0.49
2023-02-19T03:30:05.520Z,0.49
2023-02-19T03:34:05.953Z,0.49
2023-02-19T03:38:05.610Z,0.49
2023-02-19T03:42:06.542Z,0.49
2023-02-19T03:46:05.964Z,0.49
2023-02-19T03:50:05.810Z,0.49
2023-02-19T03:54:05.555Z,0.49
2023-02-19T03:58:05.568Z,0.49
2023-02-19T04:02:09.310Z,0.49
2023-02-19T04:06:06.244Z,0.49
2023-02-19T04:10:05.225Z,0.49
2023-02-19T04:14:05.297Z,0.49
2023-02-19T04:18:05.843Z,0.49
2023-02-19T04:22:06.146Z,0.49
2023-02-19T04:26:05.807Z,0.49
2023-02-19T04:30:05.767Z,0.49
2023-02-19T04:34:05.864Z,0.49
2023-02-19T04:38:05.932Z,0.49
2023-02-19T04:42:06.471Z,0.49
2023-02-19T04:46:05.399Z,0.49
2023-02-19T04:50:05.149Z,0.49
2023-02-19T04:54:05.712Z,0.49
2023-02-19T04:58:05.745Z,0.49
2023-02-19T05:02:11.091Z,0.49
2023-02-19T05:06:05.911Z,0.49
2023-02-19T05:10:05.679Z,0.49
2023-02-19T05:14:06.085Z,0.49
2023-02-19T05:18:05.484Z,0.49
2023-02-19T05:22:06.176Z,0.49
2023-02-19T05:26:05.927Z,0.49
2023-02-19T05:30:06.213Z,0.49
2023-02-19T05:34:05.752Z,0.49
2023-02-19T05:38:05.674Z,0.49
2023-02-19T05:42:06.493Z,0.49
2023-02-19T05:46:05.821Z,0.49
2023-02-19T05:50:06.219Z,0.49
2023-02-19T05:54:05.986Z,0.49
2023-02-19T05:58:06.431Z,0.49
2023-02-19T06:02:09.096Z,0.49
2023-02-19T06:06:05.343Z,0.49
2023-02-19T06:10:05.613Z,0.49
2023-02-19T06:14:05.986Z,0.49
2023-02-19T06:18:06.214Z,0.49
2023-02-19T06:22:08.445Z,0.49
2023-02-19T06:26:05.527Z,0.49
2023-02-19T06:30:05.359Z,0.49
2023-02-19T06:34:06.408Z,0.49
2023-02-19T06:38:05.578Z,0.49
2023-02-19T06:42:06.520Z,0.49
2023-02-19T06:46:06.287Z,0.49
2023-02-19T06:50:06.115Z,0.49
2023-02-19T06:54:06.187Z,0.49
2023-02-19T06:58:06.123Z,0.49
2023-02-19T07:02:10.006Z,0.49
2023-02-19T07:06:05.723Z,0.49
2023-02-19T07:10:05.782Z,0.49
2023-02-19T07:14:05.577Z,0.49
2023-02-19T07:18:06.420Z,0.49
2023-02-19T07:22:06.627Z,0.49
2023-02-19T07:26:06.904Z,0.49
2023-02-19T07:30:05.242Z,0.49
2023-02-19T07:34:07.099Z,0.49
2023-02-19T07:38:05.690Z,0.49
2023-02-19T07:42:06.945Z,0.49
2023-02-19T07:46:08.793Z,0.49
2023-02-19T07:50:05.893Z,0.49
2023-02-19T07:54:05.916Z,0.49
2023-02-19T07:58:06.287Z,0.49
2023-02-19T08:02:10.767Z,0.49
2023-02-19T08:06:05.998Z,0.49
2023-02-19T08:10:06.059Z,0.49
2023-02-19T08:14:05.895Z,0.49
2023-02-19T08:18:36.154Z,0.49
2023-02-19T08:22:08.248Z,0.49
2023-02-19T08:26:06.076Z,0.49
2023-02-19T08:30:05.476Z,0.49
2023-02-19T08:34:05.412Z,0.49
2023-02-19T08:38:05.384Z,0.49
2023-02-19T08:42:06.181Z,0.49
2023-02-19T08:46:05.907Z,0.49
2023-02-19T08:50:05.669Z,0.49
2023-02-19T08:54:05.684Z,0.49
2023-02-19T08:58:05.923Z,0.49
2023-02-19T09:02:11.982Z,0.49
2023-02-19T09:06:05.620Z,0.49
2023-02-19T09:10:05.517Z,0.49
2023-02-19T09:14:05.736Z,0.49
2023-02-19T09:18:05.744Z,0.49
2023-02-19T09:22:06.573Z,0.49
2023-02-19T09:26:05.797Z,0.49
2023-02-19T09:30:05.885Z,0.49
2023-02-19T09:34:06.293Z,0.49
2023-02-19T09:38:07.942Z,0.49
2023-02-19T09:42:06.431Z,0.49
2023-02-19T09:46:05.658Z,0.49
2023-02-19T09:50:05.811Z,0.49
2023-02-19T09:54:05.837Z,0.49
2023-02-19T09:58:06.689Z,0.49
2023-02-19T10:02:13.191Z,0.49
2023-02-19T10:06:05.848Z,0.49
2023-02-19T10:10:06.139Z,0.49
2023-02-19T10:14:05.795Z,0.49
2023-02-19T10:18:06.430Z,0.49
2023-02-19T10:22:06.560Z,0.49
2023-02-19T10:26:08.766Z,0.49
2023-02-19T10:30:06.020Z,0.49
2023-02-19T10:34:05.439Z,3.42
2023-02-19T10:38:05.107Z,3.42
2023-02-19T10:42:07.074Z,0.08
2023-02-19T10:46:05.568Z,0.06
2023-02-19T10:50:05.454Z,0.06
2023-02-19T10:54:05.670Z,0.05
2023-02-19T10:58:05.299Z,0.05
2023-02-19T11:02:14.167Z,0.05
2023-02-19T11:06:06.046Z,0.04
2023-02-19T11:10:05.397Z,0.05
2023-02-19T11:14:05.458Z,0.04
2023-02-19T11:18:05.870Z,0.04
2023-02-19T11:22:06.014Z,0.04
2023-02-19T11:26:07.025Z,0.04
2023-02-19T11:30:05.692Z,0.04
2023-02-19T11:34:05.730Z,0.04
2023-02-19T11:38:05.876Z,0.04
2023-02-19T11:42:06.154Z,0.04
2023-02-19T11:46:06.101Z,0.04
2023-02-19T11:50:05.872Z,0.04
2023-02-19T11:54:05.895Z,0.04
2023-02-19T11:58:05.796Z,0.04
2023-02-19T12:02:10.415Z,0.04
2023-02-19T12:06:09.096Z,0.04
2023-02-19T12:10:05.564Z,0.04
2023-02-19T12:14:08.480Z,0.04
2023-02-19T12:18:06.143Z,0.04
2023-02-19T12:22:06.792Z,0.04
2023-02-19T12:26:09.110Z,0.04
2023-02-19T12:30:05.740Z,0.04
2023-02-19T12:34:05.830Z,0.04
2023-02-19T12:38:06.020Z,0.04
2023-02-19T12:42:05.617Z,0.04
2023-02-19T12:46:06.002Z,0.04
2023-02-19T12:50:05.994Z,0.04
2023-02-19T12:54:05.630Z,0.04
2023-02-19T12:58:06.137Z,0.04
2023-02-19T13:02:09.670Z,0.04
2023-02-19T13:06:06.373Z,0.04
2023-02-19T13:10:24.960Z,0.04
2023-02-19T13:14:05.444Z,0.04
2023-02-19T13:18:06.354Z,0.04
2023-02-19T13:22:05.409Z,0.04
2023-02-19T13:26:08.692Z,0.04
2023-02-19T13:30:05.585Z,0.04
2023-02-19T13:34:06.067Z,0.04
2023-02-19T13:42:06.537Z,0.04
2023-02-19T13:46:06.568Z,0.04
2023-02-19T13:50:06.210Z,0.04
2023-02-19T13:54:05.403Z,0.04
2023-02-19T13:58:05.205Z,0.04
2023-02-19T14:02:11.454Z,0.04
2023-02-19T14:06:05.685Z,0.04
2023-02-19T14:10:06.080Z,0.04
2023-02-19T14:14:08.554Z,0.04
2023-02-19T14:18:05.360Z,0.04
2023-02-19T14:22:05.800Z,0.04
2023-02-19T14:26:05.900Z,0.04
2023-02-19T14:30:05.923Z,0.04
2023-02-19T14:34:18.383Z,0.04
2023-02-19T14:38:08.934Z,0.04
2023-02-19T14:42:06.760Z,0.04
2023-02-19T14:46:05.631Z,0.04
2023-02-19T14:50:07.810Z,0.04
2023-02-19T14:54:05.971Z,0.04
2023-02-19T14:58:05.841Z,0.04
2023-02-19T15:02:11.599Z,0.04
2023-02-19T15:06:05.734Z,0.04
2023-02-19T15:10:05.774Z,0.04
2023-02-19T15:14:05.453Z,0.03
2023-02-19T15:18:07.152Z,0.04
2023-02-19T15:22:07.095Z,0.04
2023-02-19T15:26:07.527Z,0.04
2023-02-19T15:30:06.044Z,0.04
2023-02-19T15:34:06.452Z,0.04
2023-02-19T15:38:06.365Z,0.04
2023-02-19T15:42:06.768Z,0.04
2023-02-19T15:46:05.394Z,0.04
2023-02-19T15:50:06.304Z,0.04
2023-02-19T15:54:07.148Z,0.04
2023-02-19T15:58:05.506Z,0.04
2023-02-19T16:02:10.023Z,0.04
2023-02-19T16:06:06.116Z,0.04
2023-02-19T16:10:05.050Z,0.04
2023-02-19T16:14:05.459Z,0.04
2023-02-19T16:18:08.270Z,0.04
2023-02-19T16:22:06.355Z,0.04
2023-02-19T16:26:06.044Z,0.04
2023-02-19T16:30:05.988Z,0.04
2023-02-19T16:34:06.628Z,0.04
2023-02-19T16:38:05.743Z,0.04
2023-02-19T16:42:09.947Z,0.04
2023-02-19T16:46:05.713Z,0.04
2023-02-19T16:50:05.842Z,0.04
2023-02-19T16:54:08.163Z,0.1
2023-02-19T16:58:06.047Z,0.1
2023-02-19T17:02:10.564Z,0.05
2023-02-19T17:06:05.858Z,0.05
2023-02-19T17:10:05.948Z,0.05
2023-02-19T17:14:05.862Z,0.05
2023-02-19T17:18:09.625Z,0.05
2023-02-19T17:22:05.413Z,0.05
2023-02-19T17:26:05.480Z,0.05
2023-02-19T17:30:05.504Z,0.05
2023-02-19T17:34:06.790Z,0.05
2023-02-19T17:38:06.069Z,0.05
2023-02-19T17:42:14.808Z,0.05
2023-02-19T17:46:06.465Z,0.05
2023-02-19T17:50:05.293Z,0.05
2023-02-19T17:54:07.465Z,0.05
2023-02-19T17:58:05.660Z,0.05
2023-02-19T18:02:11.296Z,0.05
2023-02-19T18:06:07.288Z,0.05
2023-02-19T18:10:06.009Z,0.05
2023-02-19T18:14:05.761Z,0.05
2023-02-19T18:18:09.602Z,0.05
2023-02-19T18:22:06.991Z,0.05
2023-02-19T18:26:05.662Z,0.05
2023-02-19T18:30:08.717Z,0.05
2023-02-19T18:34:05.592Z,0.05
2023-02-19T18:38:05.863Z,0.05
2023-02-19T18:42:06.981Z,0.05
2023-02-19T18:46:06.244Z,0.05
2023-02-19T18:50:06.079Z,0.05
2023-02-19T18:54:06.314Z,0.05
2023-02-19T18:58:06.149Z,0.05
2023-02-19T19:02:10.453Z,0.05
2023-02-19T19:06:06.516Z,0.05
2023-02-19T19:10:06.018Z,0.05
2023-02-19T19:14:05.425Z,0.05
2023-02-19T19:18:05.485Z,0.05
2023-02-19T19:22:06.211Z,0.05
2023-02-19T19:26:06.030Z,0.05
2023-02-19T19:30:06.060Z,0.05
2023-02-19T19:34:13.497Z,0.05
2023-02-19T19:38:05.984Z,0.05
2023-02-19T19:42:05.645Z,0.05
2023-02-19T19:46:05.689Z,0.05
2023-02-19T19:50:06.125Z,0.05
2023-02-19T19:54:05.510Z,0.05
2023-02-19T19:58:05.222Z,0.05
2023-02-19T20:02:09.771Z,0.05
2023-02-19T20:06:05.634Z,0.05
2023-02-19T20:10:05.740Z,0.05
2023-02-19T20:14:05.471Z,0.05
2023-02-19T20:18:05.816Z,0.05
2023-02-19T20:22:06.620Z,0.05
2023-02-19T20:26:05.981Z,0.05
2023-02-19T20:30:06.197Z,0.05
2023-02-19T20:34:06.749Z,0.05
2023-02-19T20:38:06.008Z,0.05
2023-02-19T20:42:07.446Z,0.05
2023-02-19T20:46:06.241Z,0.05
2023-02-19T20:50:06.235Z,0.05
2023-02-19T20:54:06.331Z,0.05
2023-02-19T20:58:06.241Z,0.05
2023-02-19T21:02:09.459Z,0.05
2023-02-19T21:06:05.397Z,0.05
2023-02-19T21:10:05.084Z,0.05
2023-02-19T21:14:05.689Z,0.05
2023-02-19T21:18:06.032Z,0.05
2023-02-19T21:22:06.121Z,0.05
2023-02-19T21:26:06.007Z,0.05
2023-02-19T21:30:05.887Z,0.05
2023-02-19T21:34:06.797Z,0.05
2023-02-19T21:38:06.616Z,0.05
2023-02-19T21:42:05.581Z,0.05
2023-02-19T21:46:06.366Z,0.05
2023-02-19T21:50:05.369Z,0.05
2023-02-19T21:54:05.189Z,0.05
2023-02-19T21:58:07.067Z,0.05
2023-02-19T22:02:09.670Z,0.05
2023-02-19T22:06:05.565Z,0.05
2023-02-19T22:10:05.658Z,0.05
2023-02-19T22:16:42.129Z,0.05
2023-02-19T22:18:06.630Z,0.05
2023-02-19T22:20:05.578Z,0.05
2023-02-19T22:22:05.258Z,0.05
2023-02-19T22:24:06.194Z,0.05
2023-02-19T22:26:06.451Z,0.05
2023-02-19T22:28:06.019Z,0.05
2023-02-19T22:30:06.331Z,0.05
2023-02-19T22:32:07.002Z,0.05
2023-02-19T22:34:06.184Z,0.05
2023-02-19T22:36:05.685Z,0.05
2023-02-19T22:38:05.809Z,0.05
2023-02-19T22:40:06.233Z,0.05
2023-02-19T22:42:05.532Z,0.05
2023-02-19T22:44:06.270Z,0.05
2023-02-19T22:46:05.952Z,0.05
2023-02-19T22:48:05.812Z,0.05
2023-02-19T22:50:17.335Z,0.05
2023-02-19T22:52:05.577Z,0.05
2023-02-19T22:54:06.272Z,0.05
2023-02-19T22:56:05.366Z,0.05
2023-02-19T22:58:06.865Z,0.05
2023-02-19T23:00:13.438Z,0.05
2023-02-19T23:02:06.470Z,0.05
2023-02-19T23:04:06.296Z,0.05
2023-02-19T23:06:05.857Z,0.05
2023-02-19T23:08:06.778Z,0.05
2023-02-19T23:10:07.489Z,0.05
2023-02-19T23:12:05.246Z,0.05
2023-02-19T23:14:05.780Z,0.05
2023-02-19T23:16:05.546Z,0.05
2023-02-19T23:18:07.384Z,0.05
2023-02-19T23:20:06.246Z,0.05
2023-02-19T23:22:05.969Z,0.05
2023-02-19T23:24:05.944Z,0.05
2023-02-19T23:26:06.189Z,0.05
2023-02-19T23:28:05.937Z,0.05
2023-02-19T23:30:06.158Z,0.05
2023-02-19T23:32:07.607Z,0.05
2023-02-19T23:34:05.480Z,0.05
2023-02-19T23:36:05.917Z,0.05
2023-02-19T23:38:06.522Z,0.05
2023-02-19T23:40:05.268Z,0.05
2023-02-19T23:42:05.556Z,0.05
2023-02-19T23:44:06.235Z,0.05
2023-02-19T23:46:06.524Z,0.05
2023-02-19T23:48:05.759Z,0.05
2023-02-19T23:50:05.842Z,0.05
2023-02-19T23:52:05.774Z,0.05
2023-02-19T23:54:06.280Z,0.05
2023-02-19T23:56:05.680Z,0.05
2023-02-19T23:58:05.665Z,0.05
